Puig, Spain
Current Conditions -  °F | °C
As of 7:00 PM on Thursday 29 Jan 2015 (Local Time) from LEBT Reporting Station
Clear Clear  
Wind Chill: 16°   Ceiling: Unl
Heat Index: 16°   Visibility: 6mi
Dew Point:   Wind: 15mph
Humidity: 39%   Direction: 270°W
Pressure: 29.65"   Gusts: NA
Location:  39.59°N, 0.3°W
Report Text: LEBT 291800Z AUTO 27013KT 230V310 CAVOK 16/02 Q1004
Loading
Personal Weather Stations






























Interactive Weather Map New forecast layout! Learn more

10-Day Weather Forecast

Advertisements
Track Severe Weather on mobile